createdAt,value
2018-03-01T00:00:15.858Z,0
2018-03-01T00:00:56.366Z,0
2018-03-01T00:01:36.898Z,0
2018-03-01T00:02:17.405Z,0
2018-03-01T00:02:57.924Z,0
2018-03-01T00:03:38.429Z,0
2018-03-01T00:04:18.939Z,0
2018-03-01T00:04:59.477Z,0
2018-03-01T00:05:40.001Z,0
2018-03-01T00:06:20.509Z,0
2018-03-01T00:07:01.032Z,0
2018-03-01T00:07:41.561Z,0
2018-03-01T00:08:22.068Z,0
2018-03-01T00:09:02.592Z,0
2018-03-01T00:09:43.092Z,0
2018-03-01T00:10:23.608Z,0
2018-03-01T00:11:04.142Z,0
2018-03-01T00:11:44.671Z,0
2018-03-01T00:12:25.186Z,0
2018-03-01T00:13:05.704Z,0
2018-03-01T00:13:46.214Z,0
2018-03-01T00:14:26.743Z,0
2018-03-01T00:15:07.250Z,0
2018-03-01T00:15:47.761Z,0
2018-03-01T00:16:28.271Z,0
2018-03-01T00:17:08.836Z,0
2018-03-01T00:17:49.356Z,0
2018-03-01T00:18:29.881Z,0
2018-03-01T00:19:10.392Z,0
2018-03-01T00:19:50.903Z,0
2018-03-01T00:20:31.402Z,0
2018-03-01T00:21:11.919Z,0
2018-03-01T00:21:52.427Z,0
2018-03-01T00:22:32.946Z,0
2018-03-01T00:23:13.458Z,0
2018-03-01T00:23:53.962Z,0
2018-03-01T00:24:34.470Z,0
2018-03-01T00:25:14.978Z,0
2018-03-01T00:25:55.499Z,0
2018-03-01T00:26:36.013Z,0
2018-03-01T00:27:16.516Z,0
2018-03-01T00:27:57.031Z,0
2018-03-01T00:28:37.555Z,0
2018-03-01T00:29:18.075Z,0
2018-03-01T00:29:58.590Z,0
2018-03-01T00:30:39.094Z,0
2018-03-01T00:31:19.620Z,0
2018-03-01T00:32:00.129Z,0
2018-03-01T00:32:40.642Z,0
2018-03-01T00:33:21.164Z,0
2018-03-01T00:34:01.666Z,0
2018-03-01T00:34:42.173Z,0
2018-03-01T00:35:22.691Z,0
2018-03-01T00:36:03.203Z,0
2018-03-01T00:36:43.724Z,0
2018-03-01T00:37:24.234Z,0
2018-03-01T00:38:04.742Z,0
2018-03-01T00:38:45.254Z,0
2018-03-01T00:39:25.786Z,0
2018-03-01T00:40:06.295Z,0
2018-03-01T00:40:46.818Z,0
2018-03-01T00:41:27.331Z,0
2018-03-01T00:42:07.849Z,0
2018-03-01T00:42:48.357Z,0
2018-03-01T00:43:28.863Z,0
2018-03-01T00:44:09.382Z,0
2018-03-01T00:44:49.895Z,0
2018-03-01T00:45:30.412Z,0
2018-03-01T00:46:10.945Z,0
2018-03-01T00:46:51.464Z,0
2018-03-01T00:47:31.991Z,0
2018-03-01T00:48:12.502Z,0
2018-03-01T00:48:53.012Z,0
2018-03-01T00:49:33.532Z,0
2018-03-01T00:50:14.047Z,0
2018-03-01T00:50:54.576Z,0
2018-03-01T00:51:35.079Z,0
2018-03-01T00:52:15.598Z,0
2018-03-01T00:52:56.116Z,0
2018-03-01T00:53:36.629Z,0
2018-03-01T00:54:17.128Z,0
2018-03-01T00:54:57.665Z,0
2018-03-01T00:55:38.172Z,0
2018-03-01T00:56:18.690Z,0
2018-03-01T00:56:59.195Z,0
2018-03-01T00:57:39.717Z,0
2018-03-01T00:58:20.226Z,0
2018-03-01T00:59:00.743Z,0
2018-03-01T00:59:41.287Z,0
2018-03-01T01:00:21.821Z,0
2018-03-01T01:01:02.334Z,0
2018-03-01T01:01:42.831Z,0
2018-03-01T01:02:23.338Z,0
2018-03-01T01:03:03.854Z,0
2018-03-01T01:03:44.372Z,0
2018-03-01T01:04:24.890Z,0
2018-03-01T01:05:05.400Z,0
2018-03-01T01:05:45.909Z,0
2018-03-01T01:06:26.428Z,0
2018-03-01T01:07:06.930Z,0
2018-03-01T01:07:47.443Z,0
2018-03-01T01:08:27.947Z,0
2018-03-01T01:09:08.476Z,0
2018-03-01T01:09:48.995Z,0
2018-03-01T01:10:29.520Z,0
2018-03-01T01:11:10.044Z,0
2018-03-01T01:11:50.564Z,0
2018-03-01T01:12:31.082Z,0
2018-03-01T01:13:11.602Z,0
2018-03-01T01:13:52.117Z,0
2018-03-01T01:14:32.616Z,0
2018-03-01T01:15:13.132Z,0
2018-03-01T01:15:53.719Z,0
2018-03-01T01:16:34.258Z,0
2018-03-01T01:17:14.772Z,0
2018-03-01T01:17:55.288Z,0
2018-03-01T01:18:35.809Z,0
2018-03-01T01:19:16.324Z,0
2018-03-01T01:19:56.844Z,0
2018-03-01T01:20:37.391Z,0
2018-03-01T01:21:17.878Z,0
2018-03-01T01:21:58.380Z,0
2018-03-01T01:22:38.889Z,0
2018-03-01T01:23:19.404Z,0
2018-03-01T01:23:59.908Z,0
2018-03-01T01:24:40.427Z,0
2018-03-01T01:25:20.904Z,0
2018-03-01T01:26:01.454Z,0
2018-03-01T01:26:41.958Z,0
2018-03-01T01:27:22.488Z,0
2018-03-01T01:28:03.000Z,0
2018-03-01T01:28:43.515Z,0
2018-03-01T01:29:24.058Z,0
2018-03-01T01:30:04.538Z,0
2018-03-01T01:30:45.041Z,0
2018-03-01T01:31:25.564Z,0
2018-03-01T01:32:06.071Z,0
2018-03-01T01:32:46.584Z,0
2018-03-01T01:33:27.092Z,0
2018-03-01T01:34:07.614Z,0
2018-03-01T01:34:48.129Z,0
2018-03-01T01:35:28.669Z,0
2018-03-01T01:36:09.178Z,0
2018-03-01T01:36:49.693Z,0
2018-03-01T01:37:30.208Z,0
2018-03-01T01:38:10.724Z,0
2018-03-01T01:38:51.233Z,0
2018-03-01T01:39:31.772Z,0
2018-03-01T01:40:12.289Z,0
2018-03-01T01:40:52.802Z,0
2018-03-01T01:41:33.335Z,0
2018-03-01T01:42:13.841Z,0
2018-03-01T01:42:54.357Z,0
2018-03-01T01:43:34.862Z,0
2018-03-01T01:44:15.376Z,0
2018-03-01T01:44:55.905Z,0
2018-03-01T01:45:36.427Z,0
2018-03-01T01:46:16.928Z,0
2018-03-01T01:46:57.456Z,0
2018-03-01T01:47:37.976Z,0
2018-03-01T01:48:18.493Z,0
2018-03-01T01:48:59.016Z,0
2018-03-01T01:49:39.537Z,0
2018-03-01T01:50:20.064Z,0
2018-03-01T01:51:00.572Z,0
2018-03-01T01:51:41.091Z,0
2018-03-01T01:52:21.598Z,0
2018-03-01T01:53:02.123Z,0
2018-03-01T01:53:42.637Z,0
2018-03-01T01:54:23.155Z,0
2018-03-01T01:55:03.662Z,0
2018-03-01T01:55:44.201Z,0
2018-03-01T01:56:24.711Z,0
2018-03-01T01:57:05.225Z,0
2018-03-01T01:57:45.752Z,0
2018-03-01T01:58:26.273Z,0
2018-03-01T01:59:06.786Z,0
2018-03-01T01:59:47.299Z,0
2018-03-01T02:00:27.816Z,0
2018-03-01T02:01:08.323Z,0
2018-03-01T02:01:48.832Z,0
2018-03-01T02:02:29.355Z,0
2018-03-01T02:03:09.897Z,0
2018-03-01T02:03:50.382Z,0
2018-03-01T02:04:31.701Z,0
2018-03-01T02:05:11.404Z,0
2018-03-01T02:05:51.911Z,0
2018-03-01T02:06:32.414Z,0
2018-03-01T02:07:12.920Z,0
2018-03-01T02:07:53.430Z,0
2018-03-01T02:08:33.929Z,0
2018-03-01T02:09:14.448Z,0
2018-03-01T02:09:54.943Z,0
2018-03-01T02:10:35.465Z,0
2018-03-01T02:11:15.980Z,0
2018-03-01T02:11:56.505Z,0
2018-03-01T02:12:37.046Z,0
2018-03-01T02:13:17.562Z,0
2018-03-01T02:13:58.091Z,0
2018-03-01T02:14:38.571Z,0
2018-03-01T02:15:19.100Z,0
2018-03-01T02:15:59.624Z,0
2018-03-01T02:16:40.150Z,0
2018-03-01T02:17:20.658Z,0
2018-03-01T02:18:01.174Z,0
2018-03-01T02:18:41.697Z,0
2018-03-01T02:19:22.225Z,0
2018-03-01T02:20:02.701Z,0
2018-03-01T02:20:43.220Z,0
2018-03-01T02:21:23.727Z,0
2018-03-01T02:22:04.235Z,0
2018-03-01T02:22:44.748Z,0
2018-03-01T02:23:25.304Z,0
2018-03-01T02:24:05.808Z,0
2018-03-01T02:24:46.316Z,0
2018-03-01T02:25:26.826Z,0
2018-03-01T02:27:55.338Z,0
2018-03-01T02:28:35.860Z,0
2018-03-01T02:29:16.368Z,0
2018-03-01T02:29:56.877Z,0
2018-03-01T02:30:37.375Z,0
2018-03-01T02:31:17.881Z,0
2018-03-01T02:31:58.402Z,0
2018-03-01T02:32:38.905Z,0
2018-03-01T02:33:19.410Z,0
2018-03-01T02:33:59.910Z,0
2018-03-01T02:34:40.415Z,0
2018-03-01T02:35:20.929Z,0
2018-03-01T02:36:01.449Z,0
2018-03-01T02:36:41.944Z,0
2018-03-01T02:37:22.449Z,0
2018-03-01T02:38:02.969Z,0
2018-03-01T02:38:43.477Z,0
2018-03-01T02:39:24.017Z,0
2018-03-01T02:40:04.537Z,0
2018-03-01T02:40:45.055Z,0
2018-03-01T02:41:25.581Z,0
2018-03-01T02:42:06.163Z,0
2018-03-01T02:42:46.683Z,0
2018-03-01T02:43:27.191Z,0
2018-03-01T02:44:07.718Z,0
2018-03-01T02:44:48.244Z,0
2018-03-01T02:45:28.766Z,0
2018-03-01T02:46:09.322Z,0
2018-03-01T02:48:07.474Z,0
2018-03-01T02:48:47.985Z,0
2018-03-01T02:49:28.493Z,0
2018-03-01T02:50:08.996Z,0
2018-03-01T02:50:49.492Z,0
2018-03-01T02:51:30.004Z,0
2018-03-01T02:52:10.507Z,0
2018-03-01T02:52:51.007Z,0
2018-03-01T02:53:31.526Z,0
2018-03-01T02:54:12.064Z,0
2018-03-01T02:54:52.568Z,0
2018-03-01T02:55:33.082Z,0
2018-03-01T02:56:13.592Z,0
2018-03-01T02:56:54.100Z,0
2018-03-01T02:57:34.605Z,0
2018-03-01T02:58:15.134Z,0
2018-03-01T02:58:55.654Z,0
2018-03-01T02:59:36.173Z,0
2018-03-01T03:00:16.689Z,0
2018-03-01T03:00:57.206Z,0
2018-03-01T03:01:37.715Z,0
2018-03-01T03:02:18.221Z,0
2018-03-01T03:02:58.734Z,0
2018-03-01T03:03:39.240Z,0
2018-03-01T03:04:19.736Z,0
2018-03-01T03:05:00.252Z,0
2018-03-01T03:05:40.798Z,0
2018-03-01T03:06:21.286Z,0
2018-03-01T03:07:01.786Z,0
2018-03-01T03:07:42.294Z,0
2018-03-01T03:08:22.803Z,0
2018-03-01T03:09:03.312Z,0
2018-03-01T03:09:43.834Z,0
2018-03-01T03:10:24.355Z,0
2018-03-01T03:11:04.860Z,0
2018-03-01T03:11:45.373Z,0
2018-03-01T03:12:25.884Z,0
2018-03-01T03:13:06.396Z,0
2018-03-01T03:13:46.896Z,0
2018-03-01T03:14:27.437Z,0
2018-03-01T03:15:07.972Z,0
2018-03-01T03:15:48.487Z,0
2018-03-01T03:16:28.987Z,0
2018-03-01T03:17:09.491Z,0
2018-03-01T03:17:49.984Z,0
2018-03-01T03:18:30.500Z,0
2018-03-01T03:19:11.026Z,0
2018-03-01T03:19:51.554Z,0
2018-03-01T03:20:32.079Z,0
2018-03-01T03:21:12.576Z,0
2018-03-01T03:21:53.119Z,0
2018-03-01T03:22:33.628Z,0
2018-03-01T03:23:14.172Z,0
2018-03-01T03:23:54.696Z,0
2018-03-01T03:24:35.212Z,0
2018-03-01T03:25:15.730Z,0
2018-03-01T03:25:56.244Z,0
2018-03-01T03:26:36.753Z,0
2018-03-01T03:27:17.264Z,0
2018-03-01T03:27:57.778Z,0
2018-03-01T03:28:38.269Z,0
2018-03-01T03:29:18.783Z,0
2018-03-01T03:29:59.298Z,0
2018-03-01T03:30:39.801Z,0
2018-03-01T03:31:20.308Z,0
2018-03-01T03:32:00.815Z,0
2018-03-01T03:34:19.232Z,0
2018-03-01T03:34:59.744Z,0
2018-03-01T03:35:40.270Z,0
2018-03-01T03:36:20.785Z,0
2018-03-01T03:37:01.288Z,0
2018-03-01T03:37:41.804Z,0
2018-03-01T03:38:22.312Z,0
2018-03-01T03:39:02.833Z,0
2018-03-01T03:39:43.344Z,0
2018-03-01T03:40:23.852Z,0
2018-03-01T03:41:04.358Z,0
2018-03-01T03:41:44.855Z,0
2018-03-01T03:42:25.370Z,0
2018-03-01T03:43:05.886Z,0
2018-03-01T03:43:46.402Z,0
2018-03-01T03:44:26.920Z,0
2018-03-01T03:45:07.423Z,0
2018-03-01T03:45:47.929Z,0
2018-03-01T03:46:28.442Z,0
2018-03-01T03:47:08.950Z,0
2018-03-01T03:47:49.454Z,0
2018-03-01T03:48:29.962Z,0
2018-03-01T03:49:10.475Z,0
2018-03-01T03:49:50.982Z,0
2018-03-01T03:50:31.487Z,0
2018-03-01T03:51:12.013Z,0
2018-03-01T03:51:52.490Z,0
2018-03-01T03:52:33.023Z,0
2018-03-01T03:53:13.537Z,0
2018-03-01T03:53:54.044Z,0
2018-03-01T03:54:34.562Z,0
2018-03-01T03:55:15.051Z,0
2018-03-01T03:55:55.566Z,0
2018-03-01T03:56:36.065Z,0
2018-03-01T03:57:16.564Z,0
2018-03-01T03:57:57.084Z,0
2018-03-01T03:58:37.592Z,0
2018-03-01T03:59:18.093Z,0
2018-03-01T03:59:58.595Z,0
2018-03-01T04:00:39.094Z,0
2018-03-01T04:01:19.613Z,0
2018-03-01T04:02:00.125Z,0
2018-03-01T04:02:40.691Z,0
2018-03-01T04:03:21.227Z,0
2018-03-01T04:04:01.745Z,0
2018-03-01T04:04:42.253Z,0
2018-03-01T04:05:22.803Z,0
2018-03-01T04:06:03.307Z,0
2018-03-01T04:06:43.814Z,0
2018-03-01T04:07:24.335Z,0
2018-03-01T04:08:04.838Z,0
2018-03-01T04:08:45.347Z,0
2018-03-01T04:09:25.860Z,0
2018-03-01T04:10:06.360Z,0
2018-03-01T04:10:46.877Z,0
2018-03-01T04:11:27.394Z,0
2018-03-01T04:12:07.888Z,0
2018-03-01T04:12:48.404Z,0
2018-03-01T04:13:28.915Z,0
2018-03-01T04:14:09.441Z,0
2018-03-01T04:14:49.952Z,0
2018-03-01T04:15:30.475Z,0
2018-03-01T04:16:10.989Z,0
2018-03-01T04:16:51.499Z,0
2018-03-01T04:17:32.010Z,0
2018-03-01T04:18:12.515Z,0
2018-03-01T04:18:53.024Z,0
2018-03-01T04:19:33.533Z,0
2018-03-01T04:20:14.038Z,0
2018-03-01T04:20:54.558Z,0
2018-03-01T04:21:35.063Z,0
2018-03-01T04:22:15.573Z,0
2018-03-01T04:22:56.092Z,0
2018-03-01T04:23:36.602Z,0
2018-03-01T04:24:17.111Z,0
2018-03-01T04:24:57.636Z,0
2018-03-01T04:25:38.133Z,0
2018-03-01T04:26:18.651Z,0
2018-03-01T04:26:59.173Z,0
2018-03-01T04:27:39.682Z,0
2018-03-01T04:28:20.191Z,0
2018-03-01T04:29:00.725Z,0
2018-03-01T04:29:41.235Z,0
2018-03-01T04:30:21.745Z,0
2018-03-01T04:31:02.256Z,0
2018-03-01T04:31:42.758Z,0
2018-03-01T04:32:23.297Z,0
2018-03-01T04:33:03.792Z,0
2018-03-01T04:33:44.294Z,0
2018-03-01T04:34:24.795Z,0
2018-03-01T04:35:05.296Z,0
2018-03-01T04:35:45.807Z,0
2018-03-01T04:36:26.323Z,0
2018-03-01T04:37:06.852Z,0
2018-03-01T04:37:47.371Z,0
2018-03-01T04:38:27.871Z,0
2018-03-01T04:39:08.401Z,0
2018-03-01T04:39:48.912Z,0
2018-03-01T04:40:29.421Z,0
2018-03-01T04:41:09.930Z,0
2018-03-01T04:41:50.444Z,0
2018-03-01T04:42:30.947Z,0
2018-03-01T04:43:11.460Z,0
2018-03-01T04:43:51.987Z,0
2018-03-01T04:44:32.548Z,0
2018-03-01T04:45:13.024Z,0
2018-03-01T04:45:53.563Z,0
2018-03-01T04:46:34.077Z,0
2018-03-01T04:47:14.595Z,0
2018-03-01T04:47:55.115Z,0
2018-03-01T04:48:35.648Z,0
2018-03-01T04:49:16.143Z,0
2018-03-01T04:49:56.641Z,0
2018-03-01T04:50:37.167Z,0
2018-03-01T04:51:17.686Z,0
2018-03-01T04:51:58.199Z,0
2018-03-01T04:52:38.725Z,0
2018-03-01T04:53:19.225Z,0
2018-03-01T04:53:59.735Z,0
2018-03-01T04:54:40.245Z,0
2018-03-01T04:55:20.752Z,0
2018-03-01T04:56:01.259Z,0
2018-03-01T04:56:41.795Z,0
2018-03-01T04:57:22.318Z,0
2018-03-01T04:58:02.821Z,0
2018-03-01T04:58:43.344Z,0
2018-03-01T04:59:23.867Z,0
2018-03-01T05:00:04.381Z,0
2018-03-01T05:00:44.885Z,0
2018-03-01T05:01:25.389Z,0
2018-03-01T05:02:05.897Z,0
2018-03-01T05:02:46.416Z,0
2018-03-01T05:03:26.925Z,0
2018-03-01T05:04:07.451Z,0
2018-03-01T05:04:47.989Z,0
2018-03-01T05:05:28.513Z,0
2018-03-01T05:06:09.010Z,0
2018-03-01T05:06:49.520Z,0
2018-03-01T05:07:30.046Z,0
2018-03-01T05:08:10.558Z,0
2018-03-01T05:08:51.073Z,0
2018-03-01T05:09:31.596Z,0
2018-03-01T05:10:12.104Z,0
2018-03-01T05:10:52.636Z,0
2018-03-01T05:11:33.166Z,0
2018-03-01T05:12:13.703Z,0
2018-03-01T05:12:54.187Z,0
2018-03-01T05:13:34.706Z,0
2018-03-01T05:14:15.205Z,0
2018-03-01T05:14:55.706Z,0
2018-03-01T05:15:36.203Z,0
2018-03-01T05:16:16.758Z,0
2018-03-01T05:16:57.218Z,0
2018-03-01T05:17:37.724Z,0
2018-03-01T05:18:18.227Z,0
2018-03-01T05:18:58.738Z,0
2018-03-01T05:19:39.298Z,0
2018-03-01T05:20:19.808Z,0
2018-03-01T05:21:00.315Z,0
2018-03-01T05:21:40.838Z,0
2018-03-01T05:22:21.352Z,0
2018-03-01T05:23:01.864Z,0
2018-03-01T05:23:42.379Z,0
2018-03-01T05:24:22.881Z,0
2018-03-01T05:25:03.400Z,0
2018-03-01T05:25:43.935Z,0
2018-03-01T05:26:24.443Z,0
2018-03-01T05:27:04.956Z,0
2018-03-01T05:27:45.469Z,0
2018-03-01T05:28:25.971Z,0
2018-03-01T05:29:06.490Z,0
2018-03-01T05:29:47.021Z,0
2018-03-01T05:30:27.553Z,0
2018-03-01T05:31:08.093Z,0
2018-03-01T05:31:48.609Z,0
2018-03-01T05:32:29.113Z,0
2018-03-01T05:33:09.697Z,0
2018-03-01T05:33:50.155Z,0
2018-03-01T05:34:30.675Z,0
2018-03-01T05:35:11.173Z,0
2018-03-01T05:35:51.678Z,0
2018-03-01T05:36:32.183Z,0
2018-03-01T05:37:12.696Z,0
2018-03-01T05:37:53.212Z,0
2018-03-01T05:38:33.727Z,0
2018-03-01T05:39:14.278Z,0
2018-03-01T05:39:54.789Z,0
2018-03-01T05:40:35.291Z,0
2018-03-01T05:41:15.792Z,0
2018-03-01T05:41:56.312Z,0
2018-03-01T05:42:36.819Z,0
2018-03-01T05:43:17.330Z,0
2018-03-01T05:43:57.850Z,0
2018-03-01T05:44:38.362Z,0
2018-03-01T05:45:18.877Z,0
2018-03-01T05:45:59.434Z,0
2018-03-01T05:46:39.865Z,0
2018-03-01T05:47:20.383Z,0
2018-03-01T05:48:00.900Z,0
2018-03-01T05:48:41.421Z,0
2018-03-01T05:49:21.919Z,4
2018-03-01T05:50:02.434Z,4
2018-03-01T05:50:42.948Z,4
2018-03-01T05:51:23.454Z,0
2018-03-01T05:52:03.970Z,0
2018-03-01T05:52:44.480Z,4
2018-03-01T05:53:25.086Z,4
2018-03-01T05:54:05.597Z,4
2018-03-01T05:54:46.104Z,4
2018-03-01T05:55:26.632Z,4
2018-03-01T05:56:07.162Z,4
2018-03-01T05:56:47.682Z,8
2018-03-01T05:57:28.187Z,4
2018-03-01T05:58:08.687Z,8
2018-03-01T05:58:49.226Z,8
2018-03-01T05:59:29.722Z,8
2018-03-01T06:00:10.230Z,12
2018-03-01T06:00:50.826Z,8
2018-03-01T06:01:31.310Z,12
2018-03-01T06:02:11.846Z,16
2018-03-01T06:02:52.356Z,16
2018-03-01T06:03:32.887Z,12
2018-03-01T06:04:13.404Z,16
2018-03-01T06:04:53.931Z,16
2018-03-01T06:05:34.425Z,24
2018-03-01T06:06:14.973Z,24
2018-03-01T06:06:55.478Z,24
2018-03-01T06:07:35.975Z,24
2018-03-01T06:08:16.488Z,32
2018-03-01T06:08:56.994Z,32
2018-03-01T06:09:37.487Z,36
2018-03-01T06:10:17.989Z,36
2018-03-01T06:10:58.504Z,40
2018-03-01T06:11:39.019Z,44
2018-03-01T06:12:19.557Z,44
2018-03-01T06:13:00.070Z,48
2018-03-01T06:13:40.605Z,52
2018-03-01T06:14:21.105Z,52
2018-03-01T06:15:01.608Z,60
2018-03-01T06:15:42.094Z,64
2018-03-01T06:16:22.601Z,68
2018-03-01T06:17:03.106Z,72
2018-03-01T06:17:43.605Z,72
2018-03-01T06:18:24.128Z,80
2018-03-01T06:19:04.645Z,84
2018-03-01T06:19:45.149Z,88
2018-03-01T06:20:25.673Z,92
2018-03-01T06:21:06.179Z,100
2018-03-01T06:21:46.694Z,104
2018-03-01T06:22:27.224Z,112
2018-03-01T06:23:07.722Z,116
2018-03-01T06:23:48.252Z,120
2018-03-01T06:24:28.758Z,128
2018-03-01T06:25:09.264Z,136
2018-03-01T06:25:49.768Z,144
2018-03-01T06:26:30.271Z,156
2018-03-01T06:27:10.776Z,160
2018-03-01T06:27:51.343Z,172
2018-03-01T06:28:31.798Z,184
2018-03-01T06:29:12.313Z,192
2018-03-01T06:29:52.927Z,200
2018-03-01T06:30:33.456Z,212
2018-03-01T06:31:13.964Z,220
2018-03-01T06:31:54.467Z,232
2018-03-01T06:32:34.985Z,240
2018-03-01T06:33:15.502Z,252
2018-03-01T06:33:56.019Z,260
2018-03-01T06:34:36.553Z,272
2018-03-01T06:35:17.062Z,284
2018-03-01T06:35:57.576Z,292
2018-03-01T06:36:38.067Z,300
2018-03-01T06:37:18.606Z,312
2018-03-01T06:37:59.127Z,324
2018-03-01T06:38:39.662Z,340
2018-03-01T06:39:20.263Z,352
2018-03-01T06:40:00.772Z,368
2018-03-01T06:40:41.291Z,384
2018-03-01T06:41:22.499Z,400
2018-03-01T06:42:03.938Z,420
2018-03-01T06:42:44.540Z,440
2018-03-01T06:43:26.158Z,456
2018-03-01T06:44:07.503Z,480
2018-03-01T06:44:48.027Z,500
2018-03-01T06:45:28.535Z,524
2018-03-01T06:46:09.046Z,544
2018-03-01T06:46:49.551Z,572
2018-03-01T06:47:30.077Z,592
2018-03-01T06:48:10.602Z,616
2018-03-01T06:48:51.116Z,632
2018-03-01T06:49:31.638Z,648
2018-03-01T06:50:12.151Z,664
2018-03-01T06:50:52.676Z,680
2018-03-01T06:51:33.190Z,700
2018-03-01T06:52:13.717Z,720
2018-03-01T06:52:54.216Z,744
2018-03-01T06:53:34.728Z,764
2018-03-01T06:54:15.702Z,788
2018-03-01T06:54:56.266Z,808
2018-03-01T06:55:36.789Z,836
2018-03-01T06:56:17.301Z,860
2018-03-01T06:56:57.917Z,884
2018-03-01T06:57:38.421Z,904
2018-03-01T06:58:18.940Z,932
2018-03-01T06:58:59.490Z,944
2018-03-01T06:59:40.023Z,964
2018-03-01T07:00:20.535Z,980
2018-03-01T07:01:02.040Z,996
2018-03-01T07:01:42.628Z,1008
2018-03-01T07:02:23.133Z,1012
2018-03-01T07:03:03.771Z,1020
2018-03-01T07:03:44.259Z,1032
2018-03-01T07:04:24.788Z,1044
2018-03-01T07:05:05.292Z,1056
2018-03-01T07:05:45.868Z,1072
2018-03-01T07:06:26.331Z,1092
2018-03-01T07:07:06.851Z,1120
2018-03-01T07:07:47.406Z,1152
2018-03-01T07:08:27.914Z,1188
2018-03-01T07:09:08.429Z,1224
2018-03-01T07:09:48.980Z,1264
2018-03-01T07:10:29.502Z,1296
2018-03-01T07:11:10.842Z,1328
2018-03-01T07:11:51.307Z,1356
2018-03-01T07:12:31.849Z,1380
2018-03-01T07:13:12.370Z,1400
2018-03-01T07:13:52.895Z,1424
2018-03-01T07:14:33.405Z,1448
2018-03-01T07:15:13.911Z,1468
2018-03-01T07:15:54.443Z,1496
2018-03-01T07:16:34.964Z,1516
2018-03-01T07:17:15.481Z,1536
2018-03-01T07:17:56.012Z,1552
2018-03-01T07:18:36.524Z,1576
2018-03-01T07:19:17.070Z,1600
2018-03-01T07:19:57.597Z,1636
2018-03-01T07:20:38.092Z,1676
2018-03-01T07:21:18.600Z,1712
2018-03-01T07:21:59.126Z,1748
2018-03-01T07:22:39.656Z,1788
2018-03-01T07:23:20.152Z,1828
2018-03-01T07:24:00.675Z,1876
2018-03-01T07:24:41.186Z,1920
2018-03-01T07:25:21.770Z,1960
2018-03-01T07:26:02.273Z,2000
2018-03-01T07:26:42.858Z,2028
2018-03-01T07:27:23.391Z,2048
2018-03-01T07:28:03.929Z,2068
2018-03-01T07:28:44.541Z,2100
2018-03-01T07:29:25.072Z,2136
2018-03-01T07:30:05.560Z,2192
2018-03-01T07:30:46.216Z,2252
2018-03-01T07:31:26.744Z,2316
2018-03-01T07:32:07.259Z,2384
2018-03-01T07:32:47.781Z,2444
2018-03-01T07:33:28.284Z,2496
2018-03-01T07:34:08.787Z,2536
2018-03-01T07:34:49.349Z,2564
2018-03-01T07:35:29.825Z,2588
2018-03-01T07:36:11.038Z,2612
2018-03-01T07:36:51.542Z,2636
2018-03-01T07:37:32.124Z,2648
2018-03-01T07:38:12.686Z,2668
2018-03-01T07:38:53.231Z,2676
2018-03-01T07:39:33.703Z,2688
2018-03-01T07:40:14.200Z,2688
2018-03-01T07:40:54.720Z,2692
2018-03-01T07:41:35.248Z,2704
2018-03-01T07:42:15.784Z,2708
2018-03-01T07:42:56.303Z,2720
2018-03-01T07:43:36.817Z,2720
2018-03-01T07:44:17.342Z,2732
2018-03-01T07:44:57.841Z,2736
2018-03-01T07:45:38.337Z,2732
2018-03-01T07:46:18.893Z,2724
2018-03-01T07:46:59.398Z,2708
2018-03-01T07:47:40.644Z,2716
2018-03-01T07:48:21.145Z,2716
2018-03-01T07:49:01.654Z,2732
2018-03-01T07:49:42.158Z,2748
2018-03-01T07:50:22.661Z,2768
2018-03-01T07:51:03.163Z,2784
2018-03-01T07:51:43.663Z,2808
2018-03-01T07:52:24.326Z,2824
2018-03-01T07:53:04.798Z,2836
2018-03-01T07:53:45.401Z,2844
2018-03-01T07:54:26.118Z,2860
2018-03-01T07:55:06.657Z,2872
2018-03-01T07:55:47.893Z,2876
2018-03-01T07:56:28.386Z,2896
2018-03-01T07:57:08.893Z,2908
2018-03-01T07:57:49.454Z,2920
2018-03-01T07:58:29.935Z,2936
2018-03-01T07:59:10.434Z,2944
2018-03-01T07:59:50.922Z,2960
2018-03-01T08:00:31.422Z,2984
2018-03-01T08:01:11.934Z,3008
2018-03-01T08:01:52.475Z,3028
2018-03-01T08:02:32.999Z,3048
2018-03-01T08:03:13.507Z,3068
2018-03-01T08:03:54.026Z,3088
2018-03-01T08:04:34.530Z,3104
2018-03-01T08:05:15.065Z,3112
2018-03-01T08:05:55.599Z,3116
2018-03-01T08:06:36.114Z,3112
2018-03-01T08:07:16.634Z,3108
2018-03-01T08:07:57.155Z,3112
2018-03-01T08:08:37.686Z,3116
2018-03-01T08:09:18.193Z,3124
2018-03-01T08:09:58.700Z,3128
2018-03-01T08:10:39.223Z,3140
2018-03-01T08:11:19.801Z,3172
2018-03-01T08:12:00.222Z,3200
2018-03-01T08:12:40.761Z,3244
2018-03-01T08:13:21.276Z,3260
2018-03-01T08:14:01.784Z,3292
2018-03-01T08:14:42.308Z,3320
2018-03-01T08:15:22.821Z,3344
2018-03-01T08:16:03.361Z,3356
2018-03-01T08:16:43.874Z,3384
2018-03-01T08:17:24.395Z,3404
2018-03-01T08:18:04.918Z,3440
2018-03-01T08:18:45.434Z,3436
2018-03-01T08:19:25.939Z,3456
2018-03-01T08:20:06.465Z,3464
2018-03-01T08:20:46.959Z,3476
2018-03-01T08:21:27.480Z,3480
2018-03-01T08:23:45.758Z,3480
2018-03-01T08:24:26.296Z,3464
2018-03-01T08:25:06.839Z,3456
2018-03-01T08:25:47.624Z,3440
2018-03-01T08:26:28.141Z,3424
2018-03-01T08:27:08.636Z,3432
2018-03-01T08:27:49.140Z,3428
2018-03-01T08:28:29.661Z,3440
2018-03-01T08:29:10.204Z,3452
2018-03-01T08:29:50.684Z,3456
2018-03-01T08:30:31.194Z,3452
2018-03-01T08:31:11.701Z,3452
2018-03-01T08:31:52.284Z,3432
2018-03-01T08:32:32.800Z,3404
2018-03-01T08:33:13.288Z,3380
2018-03-01T08:33:53.802Z,3348
2018-03-01T08:34:34.311Z,3308
2018-03-01T08:35:14.815Z,3276
2018-03-01T08:35:55.331Z,3244
2018-03-01T08:36:35.867Z,3212
2018-03-01T08:37:16.362Z,3200
2018-03-01T08:37:56.868Z,3184
2018-03-01T08:38:37.409Z,3156
2018-03-01T08:39:17.922Z,3148
2018-03-01T08:39:58.433Z,3140
2018-03-01T08:40:38.931Z,3136
2018-03-01T08:41:19.450Z,3144
2018-03-01T08:41:59.955Z,3140
2018-03-01T08:42:40.501Z,3140
2018-03-01T08:43:21.008Z,3140
2018-03-01T08:45:54.630Z,3136
2018-03-01T08:46:35.131Z,3152
2018-03-01T08:47:15.662Z,3144
2018-03-01T08:47:56.162Z,3156
2018-03-01T08:48:36.653Z,3176
2018-03-01T08:49:17.163Z,3196
2018-03-01T08:49:57.690Z,3232
2018-03-01T08:50:38.197Z,3272
2018-03-01T08:51:18.711Z,3308
2018-03-01T08:51:59.263Z,3340
2018-03-01T08:52:39.776Z,3380
2018-03-01T08:53:20.290Z,3420
2018-03-01T08:54:00.978Z,3448
2018-03-01T08:54:41.492Z,3472
2018-03-01T08:55:21.993Z,3504
2018-03-01T08:56:02.516Z,3524
2018-03-01T08:56:43.034Z,3556
2018-03-01T08:57:23.542Z,3568
2018-03-01T08:58:04.052Z,3588
2018-03-01T08:58:44.573Z,3612
2018-03-01T08:59:25.080Z,3624
2018-03-01T09:00:05.597Z,3640
2018-03-01T09:00:46.124Z,3664
2018-03-01T09:01:26.732Z,3680
2018-03-01T09:02:07.169Z,3696
2018-03-01T09:02:47.666Z,3700
2018-03-01T09:03:28.202Z,3704
2018-03-01T09:04:08.727Z,3700
2018-03-01T09:04:49.219Z,3700
2018-03-01T09:05:29.758Z,3700
2018-03-01T09:06:10.293Z,3700
2018-03-01T09:06:50.820Z,3708
2018-03-01T09:07:31.460Z,3720
2018-03-01T09:08:11.991Z,3728
2018-03-01T09:08:52.849Z,3736
2018-03-01T09:11:21.612Z,3800
2018-03-01T09:12:02.640Z,3828
2018-03-01T09:12:43.200Z,3860
2018-03-01T09:13:23.737Z,3896
2018-03-01T09:14:04.244Z,3932
2018-03-01T09:14:44.772Z,3976
2018-03-01T09:15:25.356Z,4004
2018-03-01T09:16:05.869Z,4024
2018-03-01T09:16:46.378Z,4032
2018-03-01T09:17:26.886Z,4048
2018-03-01T09:18:07.407Z,4060
2018-03-01T09:18:47.919Z,4080
2018-03-01T09:19:28.839Z,4096
2018-03-01T09:20:09.212Z,4108
2018-03-01T09:20:49.724Z,4124
2018-03-01T09:23:28.647Z,4196
2018-03-01T09:24:09.150Z,4192
2018-03-01T09:24:49.667Z,4196
2018-03-01T09:25:30.177Z,4196
2018-03-01T09:26:10.692Z,4216
2018-03-01T09:26:51.186Z,4232
2018-03-01T09:27:31.725Z,4244
2018-03-01T09:28:12.245Z,4252
2018-03-01T09:28:52.737Z,4260
2018-03-01T09:29:33.243Z,4260
2018-03-01T09:30:13.788Z,4256
2018-03-01T09:30:54.260Z,4256
2018-03-01T09:31:34.760Z,4268
2018-03-01T09:32:15.275Z,4260
2018-03-01T09:32:55.765Z,4264
2018-03-01T09:33:36.269Z,4280
2018-03-01T09:34:16.779Z,4292
2018-03-01T09:34:57.282Z,4308
2018-03-01T09:35:37.796Z,4336
2018-03-01T09:36:18.294Z,4368
2018-03-01T09:36:58.801Z,4404
2018-03-01T09:37:39.315Z,4444
2018-03-01T09:38:19.838Z,4484
2018-03-01T09:39:00.342Z,4528
2018-03-01T09:39:40.854Z,4572
2018-03-01T09:40:21.416Z,4608
2018-03-01T09:41:01.953Z,4640
2018-03-01T09:41:42.450Z,4664
2018-03-01T09:42:22.958Z,4696
2018-03-01T09:43:03.489Z,4720
2018-03-01T09:43:43.990Z,4748
2018-03-01T09:44:24.537Z,4772
2018-03-01T09:45:05.028Z,4788
2018-03-01T09:45:45.534Z,4800
2018-03-01T09:46:26.049Z,4800
2018-03-01T09:47:06.556Z,4804
2018-03-01T09:47:47.058Z,4828
2018-03-01T09:48:27.572Z,4848
2018-03-01T09:49:08.184Z,4864
2018-03-01T09:49:48.697Z,4888